Owen, Kentucky
Current Conditions -  °F | °C
As of 2:53 PM on Monday 26 Jan 2015 (Local Time) from KFFT Reporting Station
Overcast Overcast  
Wind Chill: 19°   Ceiling: 1800
Heat Index: 28°   Visibility: 10mi
Dew Point: 21°   Wind: 10mph
Humidity: 75%   Direction: 290°WNW
Pressure: 29.89"   Gusts: NA
Location:  38.5364°N, 84.5918°W
Report Text: KFFT 261953Z AUTO 29009KT 10SM OVC018 M02/M06 A2989 RMK AO2 SLP127 T10221061
Loading
Personal Weather Stations






























Interactive Weather Map New forecast layout! Learn more

10-Day Weather Forecast

Advertisements
Track Severe Weather on mobile